Time;durP1;ratioP1;P1;durP2;ratioP2;P2;SDS_P1;SDS_P2;PMS_P1;PMS_P2;Temp;Humidity;BMP_temperature;BMP_pressure;BME280_temperature;BME280_humidity;BME280_pressure;Samples;Min_cycle;Max_cycle;Signal;HPM_P1;HPM_P2
2022/03/24 00:02:07;;;;;;;38.58;31.77;;;15.20;60.10;;;;;;5097407;28;20048;-68
2022/03/24 00:04:33;;;;;;;37.50;31.90;;;15.20;60.00;;;;;;5097512;28;20063;-68
2022/03/24 00:06:59;;;;;;;40.13;33.80;;;15.20;60.00;;;;;;5097622;28;20044;-69
2022/03/24 00:09:24;;;;;;;39.70;34.33;;;15.20;59.90;;;;;;5097698;28;20048;-68
2022/03/24 00:11:50;;;;;;;40.20;33.72;;;15.20;59.90;;;;;;5097614;28;20035;-68
2022/03/24 00:14:17;;;;;;;38.05;32.15;;;15.20;59.90;;;;;;5098090;28;20056;-69
2022/03/24 00:16:43;;;;;;;38.60;32.75;;;15.10;59.80;;;;;;5097820;28;20055;-68
2022/03/24 00:19:09;;;;;;;40.88;33.03;;;15.10;59.80;;;;;;5097861;28;20048;-69
2022/03/24 00:21:35;;;;;;;39.50;33.03;;;15.10;59.80;;;;;;5097784;28;20039;-69
2022/03/24 00:24:01;;;;;;;39.30;32.15;;;15.10;59.80;;;;;;5097669;28;20048;-68
2022/03/24 00:26:27;;;;;;;40.40;33.00;;;15.10;59.80;;;;;;5097403;28;20048;-69
2022/03/24 00:28:53;;;;;;;39.17;33.22;;;15.10;59.80;;;;;;5097567;28;20032;-69
2022/03/24 00:31:19;;;;;;;40.80;33.65;;;15.10;59.70;;;;;;5097139;28;20040;-69
2022/03/24 00:33:45;;;;;;;40.85;33.17;;;15.00;59.70;;;;;;5097517;28;20401;-69
2022/03/24 00:36:11;;;;;;;38.88;32.28;;;15.00;59.70;;;;;;5097071;28;20048;-69
2022/03/24 00:38:38;;;;;;;39.60;32.85;;;15.00;59.70;;;;;;5097675;28;20109;-69
2022/03/24 00:41:04;;;;;;;39.35;33.50;;;15.00;59.70;;;;;;5097263;28;20374;-68
2022/03/24 00:43:30;;;;;;;42.47;34.63;;;15.00;59.70;;;;;;5097413;28;20058;-69
2022/03/24 00:45:57;;;;;;;40.30;33.13;;;15.00;59.70;;;;;;5096282;28;20451;-68
2022/03/24 00:48:24;;;;;;;41.30;33.95;;;14.90;59.70;;;;;;5096776;28;20469;-69
2022/03/24 00:50:50;;;;;;;41.47;33.80;;;14.90;59.70;;;;;;5096471;28;20467;-69
2022/03/24 00:53:16;;;;;;;40.10;33.58;;;14.90;59.60;;;;;;5097048;28;20044;-68
2022/03/24 00:55:43;;;;;;;44.88;36.63;;;14.90;59.70;;;;;;5096909;28;20352;-69
2022/03/24 00:58:10;;;;;;;40.15;33.25;;;14.90;59.60;;;;;;5097061;28;20340;-69
2022/03/24 01:00:38;;;;;;;40.88;34.25;;;14.90;59.60;;;;;;5096604;28;20115;-69
2022/03/24 01:03:08;;;;;;;43.70;36.38;;;14.90;59.60;;;;;;5096888;28;20040;-69
2022/03/24 01:05:37;;;;;;;43.67;35.88;;;14.90;59.70;;;;;;5096955;28;20051;-69
2022/03/24 01:08:08;;;;;;;44.05;36.30;;;14.90;59.70;;;;;;5096921;28;20345;-70
2022/03/24 01:10:34;;;;;;;42.45;35.00;;;14.90;59.70;;;;;;5096737;28;20047;-69
2022/03/24 01:13:01;;;;;;;43.97;36.17;;;14.90;59.70;;;;;;5096329;28;20044;-69
2022/03/24 01:15:27;;;;;;;44.88;36.92;;;14.80;59.70;;;;;;5096743;28;20484;-69
2022/03/24 01:17:55;;;;;;;46.25;37.53;;;14.80;59.80;;;;;;5096393;28;20101;-69
2022/03/24 01:20:21;;;;;;;41.78;34.90;;;14.80;59.80;;;;;;5096053;28;20454;-69
2022/03/24 01:22:47;;;;;;;44.47;36.70;;;14.80;59.80;;;;;;5096436;28;20051;-68
2022/03/24 01:25:13;;;;;;;45.00;36.90;;;14.80;59.80;;;;;;5096473;28;20056;-69
2022/03/24 01:27:38;;;;;;;45.70;37.03;;;14.80;59.80;;;;;;5096395;28;20040;-69
2022/03/24 01:30:08;;;;;;;47.15;38.08;;;14.70;59.80;;;;;;5096304;28;20108;-69
2022/03/24 01:32:36;;;;;;;45.00;37.70;;;14.80;59.80;;;;;;5095811;28;20078;-69
2022/03/24 01:35:07;;;;;;;42.78;36.38;;;14.70;59.80;;;;;;5095880;28;20044;-69
2022/03/24 01:37:35;;;;;;;47.20;37.67;;;14.70;59.80;;;;;;5096196;28;20052;-69
2022/03/24 01:40:01;;;;;;;45.88;38.13;;;14.70;59.90;;;;;;5078688;28;20052;-69
2022/03/24 01:42:27;;;;;;;47.60;37.17;;;14.70;59.90;;;;;;5096121;28;20042;-69
2022/03/24 01:44:55;;;;;;;49.03;38.28;;;14.70;59.90;;;;;;5096195;28;20359;-68
2022/03/24 01:47:22;;;;;;;44.20;37.30;;;14.70;59.90;;;;;;5095915;28;20119;-69
2022/03/24 01:49:48;;;;;;;48.15;38.13;;;14.70;59.90;;;;;;5096334;28;20128;-68
2022/03/24 01:52:16;;;;;;;47.35;38.33;;;14.70;59.90;;;;;;5096392;28;20439;-68
2022/03/24 01:54:45;;;;;;;44.55;36.70;;;14.60;59.90;;;;;;5095845;28;20459;-68
2022/03/24 01:57:14;;;;;;;50.20;38.55;;;14.60;60.00;;;;;;5095673;28;20047;-69
2022/03/24 01:59:40;;;;;;;47.70;38.55;;;14.60;60.00;;;;;;5095621;28;20052;-68
2022/03/24 02:02:10;;;;;;;45.72;37.75;;;14.60;60.00;;;;;;5095540;28;20036;-68
2022/03/24 02:04:37;;;;;;;48.25;39.97;;;14.50;60.00;;;;;;5096259;28;20052;-69
2022/03/24 02:07:06;;;;;;;50.20;39.65;;;14.50;59.90;;;;;;5095492;28;20039;-68
2022/03/24 02:09:33;;;;;;;47.67;39.08;;;14.50;60.00;;;;;;5095726;28;20439;-69
2022/03/24 02:12:04;;;;;;;46.28;38.00;;;14.40;60.00;;;;;;5095349;28;20048;-69
2022/03/24 02:14:29;;;;;;;50.45;40.13;;;14.40;60.50;;;;;;5095589;28;20127;-69
2022/03/24 02:16:56;;;;;;;48.42;40.35;;;14.40;60.10;;;;;;5095415;28;20423;-69
2022/03/24 02:19:26;;;;;;;48.90;39.00;;;14.40;60.30;;;;;;5095604;28;20340;-69
2022/03/24 02:21:54;;;;;;;47.05;38.40;;;14.40;60.40;;;;;;5095413;28;20047;-69
2022/03/24 02:24:23;;;;;;;51.67;39.83;;;14.40;60.40;;;;;;5095378;28;20048;-69
2022/03/24 02:26:49;;;;;;;51.78;40.75;;;14.40;60.30;;;;;;5095753;28;20398;-69
2022/03/24 02:29:17;;;;;;;46.83;38.65;;;14.40;60.20;;;;;;5095127;28;20048;-69
2022/03/24 02:31:48;;;;;;;51.58;41.22;;;14.40;60.20;;;;;;5094852;28;20052;-69
2022/03/24 02:37:05;;;;;;;48.22;38.53;;;14.40;60.20;;;;;;5095897;28;20059;-69
2022/03/24 02:39:31;;;;;;;47.85;38.72;;;14.40;60.20;;;;;;5095062;28;20052;-69
2022/03/24 02:41:59;;;;;;;48.67;39.28;;;14.40;60.20;;;;;;5095288;28;20115;-69
2022/03/24 02:44:32;;;;;;;50.42;39.42;;;14.40;60.20;;;;;;5095108;28;20048;-69
2022/03/24 02:47:00;;;;;;;47.95;38.90;;;14.40;60.10;;;;;;5095449;28;20051;-69
2022/03/24 02:49:30;;;;;;;52.90;41.50;;;14.40;60.10;;;;;;5095153;28;20055;-69
2022/03/24 02:51:58;;;;;;;51.53;41.85;;;14.40;60.10;;;;;;5094819;28;20117;-69
2022/03/24 02:54:25;;;;;;;51.25;41.00;;;14.40;60.10;;;;;;5095040;28;20052;-69
2022/03/24 02:56:51;;;;;;;49.30;39.33;;;14.40;60.10;;;;;;5095353;28;20352;-70
2022/03/24 02:59:17;;;;;;;51.58;41.53;;;14.40;60.10;;;;;;5095156;28;20044;-69
2022/03/24 03:02:07;;;;;;;52.05;40.33;;;14.40;60.20;;;;;;5095367;28;20040;-69
2022/03/24 03:04:34;;;;;;;52.90;41.47;;;14.40;60.10;;;;;;5095015;28;20044;-69
2022/03/24 03:07:02;;;;;;;53.17;42.95;;;14.40;60.10;;;;;;5094693;28;20447;-68
2022/03/24 03:09:32;;;;;;;52.17;42.25;;;14.40;60.10;;;;;;5098482;28;20043;-68
2022/03/24 03:11:58;;;;;;;53.45;42.03;;;14.40;60.10;;;;;;5099014;28;20040;-69
2022/03/24 03:14:25;;;;;;;55.08;42.35;;;14.40;60.10;;;;;;5098718;28;20506;-69
2022/03/24 03:16:51;;;;;;;55.13;43.60;;;14.40;60.00;;;;;;5098399;28;20105;-68
2022/03/24 03:19:19;;;;;;;53.83;42.20;;;14.40;60.00;;;;;;5098405;28;20051;-69
2022/03/24 03:21:47;;;;;;;55.88;42.45;;;14.40;60.00;;;;;;5098528;28;20101;-69
2022/03/24 03:24:13;;;;;;;57.95;44.40;;;14.40;60.00;;;;;;5099098;28;20413;-68
2022/03/24 03:26:39;;;;;;;51.67;41.85;;;14.40;60.00;;;;;;5099457;28;20048;-69
2022/03/24 03:29:06;;;;;;;52.47;41.42;;;14.30;59.90;;;;;;5099243;28;20044;-69
2022/03/24 03:31:34;;;;;;;54.38;41.80;;;14.30;59.90;;;;;;5097782;28;20105;-69
2022/03/24 03:34:01;;;;;;;54.83;43.80;;;14.30;59.90;;;;;;5080805;28;20063;-68
2022/03/24 03:36:28;;;;;;;57.47;44.83;;;14.30;59.90;;;;;;5098509;28;20044;-68
2022/03/24 03:38:54;;;;;;;56.28;43.97;;;14.30;60.00;;;;;;5081054;28;20043;-68
2022/03/24 03:41:22;;;;;;;56.55;44.03;;;14.30;60.00;;;;;;5098542;28;20051;-68
2022/03/24 03:43:49;;;;;;;56.25;43.47;;;14.30;59.90;;;;;;5098888;28;20401;-68
2022/03/24 03:46:16;;;;;;;56.47;44.00;;;14.20;59.90;;;;;;5098517;28;20039;-69
2022/03/24 03:48:42;;;;;;;56.85;44.78;;;14.20;60.00;;;;;;5098698;28;20348;-69
2022/03/24 03:51:08;;;;;;;59.78;44.55;;;14.20;59.90;;;;;;5097981;28;20052;-69
2022/03/24 03:53:37;;;;;;;59.33;45.80;;;14.20;60.00;;;;;;5098433;28;20047;-68
2022/03/24 03:56:04;;;;;;;54.47;43.13;;;14.20;59.90;;;;;;5080066;28;20075;-69
2022/03/24 03:58:30;;;;;;;58.15;44.67;;;14.20;60.00;;;;;;5098231;28;20055;-69
2022/03/24 04:00:56;;;;;;;55.10;43.13;;;14.20;60.00;;;;;;5097028;28;20044;-68
2022/03/24 04:03:27;;;;;;;57.15;43.15;;;14.20;60.00;;;;;;5097795;28;20120;-68
2022/03/24 04:06:05;;;;;;;54.17;42.20;;;14.20;60.00;;;;;;5098071;28;20052;-68
2022/03/24 04:08:31;;;;;;;58.30;44.20;;;14.20;60.00;;;;;;5097957;28;20193;-68
2022/03/24 04:10:57;;;;;;;54.88;43.15;;;14.20;60.00;;;;;;5098024;28;20056;-68
2022/03/24 04:13:24;;;;;;;55.28;43.50;;;14.10;59.90;;;;;;5097276;28;20047;-69
2022/03/24 04:15:51;;;;;;;55.90;44.30;;;14.20;60.00;;;;;;5097897;28;20043;-69
2022/03/24 04:18:18;;;;;;;60.35;44.85;;;14.20;59.90;;;;;;5097548;28;20105;-69
2022/03/24 04:20:44;;;;;;;56.95;43.40;;;14.20;60.00;;;;;;5097432;28;20039;-69
2022/03/24 04:23:11;;;;;;;62.05;46.20;;;14.10;59.90;;;;;;5097691;28;20477;-69
2022/03/24 04:25:37;;;;;;;61.35;46.00;;;14.10;60.00;;;;;;5098161;28;20083;-70
2022/03/24 04:28:04;;;;;;;56.00;43.40;;;14.10;60.00;;;;;;5097333;28;20121;-69
2022/03/24 04:30:31;;;;;;;56.35;44.60;;;14.10;60.00;;;;;;5097349;28;20052;-69
2022/03/24 04:32:57;;;;;;;57.63;44.22;;;14.10;59.90;;;;;;5097131;28;20044;-69
2022/03/24 04:35:22;;;;;;;57.67;45.28;;;14.10;59.90;;;;;;5097535;28;20459;-69
2022/03/24 04:37:49;;;;;;;59.28;44.83;;;14.10;60.50;;;;;;5097942;28;20355;-70
2022/03/24 04:40:16;;;;;;;58.10;45.15;;;14.00;59.90;;;;;;5097555;28;20043;-68
2022/03/24 04:42:54;;;;;;;57.13;43.60;;;14.00;59.70;;;;;;5097053;28;20400;-69
2022/03/24 04:45:21;;;;;;;56.63;43.72;;;14.00;59.80;;;;;;5096331;28;20075;-69
2022/03/24 04:47:48;;;;;;;58.33;44.08;;;14.00;59.90;;;;;;5096274;28;20055;-69
2022/03/24 04:50:15;;;;;;;58.20;43.28;;;14.00;60.00;;;;;;5097208;28;20264;-69
2022/03/24 04:52:41;;;;;;;57.50;43.63;;;14.00;59.90;;;;;;5096926;28;20055;-69
2022/03/24 04:55:09;;;;;;;57.53;43.80;;;14.00;59.80;;;;;;5096738;28;20055;-69
2022/03/24 04:57:34;;;;;;;56.47;43.83;;;14.00;59.70;;;;;;5097240;28;20066;-69
2022/03/24 05:00:01;;;;;;;56.63;40.95;;;14.00;59.90;;;;;;5096505;28;20136;-74
2022/03/24 05:02:27;;;;;;;62.05;45.05;;;13.90;60.00;;;;;;5094897;28;20458;-79
2022/03/24 05:04:54;;;;;;;73.97;46.67;;;14.00;59.90;;;;;;5095233;28;20080;-78
2022/03/24 05:07:20;;;;;;;61.60;46.10;;;14.00;59.60;;;;;;5075680;28;20052;-75
2022/03/24 05:09:46;;;;;;;63.20;47.30;;;14.00;59.20;;;;;;5095073;28;20052;-76
2022/03/24 05:12:11;;;;;;;61.38;45.85;;;14.10;58.70;;;;;;5091456;28;20032;-78
2022/03/24 05:14:40;;;;;;;64.07;46.58;;;14.00;58.10;;;;;;5086783;28;20386;-78
2022/03/24 05:17:06;;;;;;;64.13;46.88;;;14.10;57.50;;;;;;5067136;28;20115;-76
2022/03/24 05:19:32;;;;;;;62.20;46.25;;;14.10;57.20;;;;;;5096214;28;20392;-73
2022/03/24 05:21:58;;;;;;;59.17;44.40;;;14.10;56.20;;;;;;5090750;28;20056;-73
2022/03/24 05:24:24;;;;;;;61.90;45.88;;;14.00;56.50;;;;;;5091924;28;20035;-72
2022/03/24 05:26:51;;;;;;;60.10;44.45;;;13.90;57.10;;;;;;5077107;28;20340;-74
2022/03/24 05:29:17;;;;;;;55.88;43.63;;;14.00;57.60;;;;;;5073836;28;20177;-71
2022/03/24 05:31:42;;;;;;;51.35;40.00;;;14.00;57.60;;;;;;5088497;28;20083;-72
2022/03/24 05:34:08;;;;;;;51.55;39.17;;;14.10;57.40;;;;;;5088140;28;20326;-70
2022/03/24 05:36:34;;;;;;;50.03;37.78;;;14.40;57.50;;;;;;5073460;28;20040;-73
2022/03/24 05:39:00;;;;;;;49.40;37.05;;;14.60;58.00;;;;;;5095338;28;20067;-72
2022/03/24 05:41:26;;;;;;;47.15;34.67;;;14.80;57.80;;;;;;5092832;28;20032;-73
2022/03/24 05:44:04;;;;;;;48.90;33.40;;;15.10;58.20;;;;;;5074509;28;20044;-76
2022/03/24 05:46:39;;;;;;;42.35;32.28;;;15.20;58.70;;;;;;5094474;28;20068;-70
2022/03/24 05:49:06;;;;;;;39.97;31.50;;;15.40;59.00;;;;;;5095643;28;20125;-71
2022/03/24 05:51:33;;;;;;;40.85;31.02;;;15.60;59.40;;;;;;5095647;28;20397;-72
2022/03/24 05:53:59;;;;;;;39.38;29.42;;;15.60;59.30;;;;;;5095694;28;20040;-72
2022/03/24 05:56:24;;;;;;;36.95;28.25;;;15.70;59.70;;;;;;5095549;28;20375;-73
2022/03/24 05:58:50;;;;;;;37.88;28.38;;;15.70;60.00;;;;;;5095675;28;20048;-71
2022/03/24 06:01:17;;;;;;;37.30;26.58;;;15.70;60.20;;;;;;5094787;28;20126;-71
2022/03/24 06:03:45;;;;;;;41.95;31.70;;;15.80;60.40;;;;;;5095112;28;20466;-71
2022/03/24 06:06:12;;;;;;;36.05;26.92;;;15.70;58.60;;;;;;5077626;28;20473;-71
2022/03/24 06:08:42;;;;;;;36.25;26.08;;;15.70;60.10;;;;;;5095156;28;20047;-73
2022/03/24 06:11:13;;;;;;;30.85;23.95;;;15.70;60.30;;;;;;5094996;28;20109;-72
2022/03/24 06:13:42;;;;;;;29.92;24.80;;;15.80;60.40;;;;;;5095796;28;20036;-73
2022/03/24 06:16:08;;;;;;;32.70;25.92;;;15.80;60.30;;;;;;5095139;28;20079;-73
2022/03/24 06:18:39;;;;;;;31.67;24.48;;;15.80;60.10;;;;;;5094983;28;20519;-73
2022/03/24 06:21:05;;;;;;;33.35;25.23;;;15.90;60.10;;;;;;5095199;28;20130;-73
2022/03/24 06:23:31;;;;;;;31.67;23.65;;;15.90;59.50;;;;;;5077566;28;20051;-71
2022/03/24 06:25:58;;;;;;;29.95;23.42;;;15.90;60.30;;;;;;5095555;28;20048;-75
2022/03/24 06:28:24;;;;;;;27.77;22.02;;;16.00;60.60;;;;;;5095319;28;20040;-73
2022/03/24 06:30:50;;;;;;;40.80;28.17;;;16.10;60.30;;;;;;5094876;28;20033;-71
2022/03/24 06:33:16;;;;;;;30.27;23.15;;;15.90;58.90;;;;;;5091873;28;20059;-73
2022/03/24 06:35:46;;;;;;;30.60;23.50;;;15.90;59.80;;;;;;5092029;28;20327;-75
2022/03/24 06:38:13;;;;;;;31.55;22.50;;;16.10;60.20;;;;;;5094649;28;20048;-72
2022/03/24 06:40:39;;;;;;;39.13;23.90;;;16.10;60.20;;;;;;5073985;28;20087;-73
2022/03/24 06:43:06;;;;;;;34.10;22.27;;;16.20;61.00;;;;;;5079569;28;20112;-72
2022/03/24 06:45:32;;;;;;;28.58;20.50;;;16.40;61.10;;;;;;5080075;28;20040;-72
2022/03/24 06:47:59;;;;;;;35.80;22.30;;;16.50;61.10;;;;;;5067586;28;20052;-72
2022/03/24 06:50:24;;;;;;;33.63;20.38;;;16.60;60.90;;;;;;5094908;28;20044;-72
2022/03/24 06:52:50;;;;;;;28.27;20.02;;;16.60;61.00;;;;;;5080792;28;20102;-72
2022/03/24 06:55:16;;;;;;;28.75;19.05;;;16.70;61.20;;;;;;5078611;28;20049;-72
2022/03/24 06:57:43;;;;;;;30.02;18.60;;;16.70;61.20;;;;;;5095129;28;20035;-71
2022/03/24 07:00:13;;;;;;;27.00;18.05;;;16.80;61.00;;;;;;5105004;28;20063;-72
2022/03/24 07:02:44;;;;;;;25.10;17.85;;;16.90;60.80;;;;;;5098780;28;20087;-72
2022/03/24 07:05:12;;;;;;;28.05;17.85;;;17.00;60.50;;;;;;5078876;28;20118;-72
2022/03/24 07:07:38;;;;;;;24.33;17.10;;;17.00;60.30;;;;;;5078095;28;20495;-72
2022/03/24 07:10:07;;;;;;;28.25;17.15;;;17.10;60.10;;;;;;5078095;28;20098;-74
2022/03/24 07:12:34;;;;;;;22.35;16.48;;;17.10;60.00;;;;;;5079836;28;20079;-72
2022/03/24 07:15:02;;;;;;;22.80;15.55;;;17.20;59.90;;;;;;5098631;28;20059;-74
2022/03/24 07:17:28;;;;;;;23.90;16.45;;;17.20;59.80;;;;;;5080675;28;20125;-71
2022/03/24 07:19:54;;;;;;;26.73;16.40;;;17.20;59.80;;;;;;5098538;28;20035;-71
2022/03/24 07:22:20;;;;;;;23.55;16.42;;;17.20;59.70;;;;;;5098277;28;20554;-72
2022/03/24 07:24:46;;;;;;;20.80;14.63;;;17.20;59.70;;;;;;5097810;28;20066;-73
2022/03/24 07:27:14;;;;;;;22.25;16.60;;;17.10;59.70;;;;;;5100231;28;20102;-72
2022/03/24 07:29:47;;;;;;;25.02;16.00;;;17.10;60.50;;;;;;5098364;28;20123;-73
2022/03/24 07:32:13;;;;;;;24.92;16.40;;;17.10;59.80;;;;;;5095380;28;20044;-75
2022/03/24 07:34:39;;;;;;;22.35;16.08;;;17.10;59.90;;;;;;5078080;28;20498;-72
2022/03/24 07:37:07;;;;;;;23.63;16.30;;;17.10;60.00;;;;;;5060534;28;20127;-72
2022/03/24 07:39:33;;;;;;;23.02;16.67;;;17.10;59.70;;;;;;5079573;28;20121;-72
2022/03/24 07:41:59;;;;;;;26.00;16.30;;;17.10;59.60;;;;;;5066178;28;20084;-72
2022/03/24 07:44:25;;;;;;;22.25;15.45;;;17.10;59.50;;;;;;5086399;28;20394;-72
2022/03/24 07:46:51;;;;;;;24.23;15.45;;;17.10;59.50;;;;;;5086386;28;20467;-72
2022/03/24 07:49:17;;;;;;;24.40;18.63;;;17.10;59.70;;;;;;5085851;28;20064;-71
2022/03/24 07:51:43;;;;;;;26.52;19.77;;;17.10;59.30;;;;;;5098266;28;20040;-72
2022/03/24 07:54:10;;;;;;;27.73;18.70;;;17.10;59.10;;;;;;5097795;28;20056;-72
2022/03/24 07:56:37;;;;;;;27.33;19.35;;;17.10;59.10;;;;;;5098337;28;20176;-72
2022/03/24 07:59:05;;;;;;;22.98;16.98;;;17.10;59.00;;;;;;5097716;28;20048;-71
2022/03/24 08:01:37;;;;;;;22.75;16.50;;;17.10;59.00;;;;;;5080548;28;20058;-71
2022/03/24 08:04:05;;;;;;;26.30;17.58;;;17.20;58.80;;;;;;5094870;28;20144;-72
2022/03/24 08:06:31;;;;;;;23.95;16.80;;;17.20;58.70;;;;;;5097712;28;20044;-72
2022/03/24 08:08:58;;;;;;;24.83;15.95;;;17.20;58.60;;;;;;5094988;28;20047;-71
2022/03/24 08:11:25;;;;;;;20.63;16.58;;;17.20;58.50;;;;;;5097839;28;20043;-71
2022/03/24 08:13:53;;;;;;;21.58;16.40;;;17.20;58.50;;;;;;5097901;28;20052;-71
2022/03/24 08:16:21;;;;;;;19.83;15.32;;;17.20;58.50;;;;;;5097627;28;20577;-72
2022/03/24 08:18:47;;;;;;;21.25;15.13;;;17.30;58.30;;;;;;5097804;28;20059;-71
2022/03/24 08:21:12;;;;;;;20.92;15.65;;;17.30;58.30;;;;;;5097528;28;20085;-71
2022/03/24 08:23:38;;;;;;;20.80;14.65;;;17.30;58.30;;;;;;5080073;28;20051;-71
2022/03/24 08:26:05;;;;;;;20.92;14.98;;;17.30;58.30;;;;;;5096993;28;20438;-73
2022/03/24 08:28:31;;;;;;;19.08;15.50;;;17.30;58.50;;;;;;5097667;28;20079;-72
2022/03/24 08:30:57;;;;;;;27.60;18.10;;;17.30;58.40;;;;;;5097414;28;20062;-72
2022/03/24 08:33:23;;;;;;;25.65;17.45;;;17.30;58.20;;;;;;5097567;28;20443;-72
2022/03/24 08:35:48;;;;;;;21.92;17.00;;;17.30;58.00;;;;;;5097168;28;20043;-72
2022/03/24 08:38:14;;;;;;;22.65;16.33;;;17.30;58.00;;;;;;5097137;28;20390;-71
2022/03/24 08:40:40;;;;;;;22.92;16.42;;;17.30;58.00;;;;;;5097049;28;20048;-71
2022/03/24 08:43:07;;;;;;;23.23;17.13;;;17.30;58.10;;;;;;5097160;28;20069;-71
2022/03/24 08:45:35;;;;;;;23.50;17.08;;;17.30;58.00;;;;;;5097276;28;20059;-70
2022/03/24 08:48:00;;;;;;;31.42;20.98;;;17.30;58.10;;;;;;5093863;28;20052;-70
2022/03/24 08:50:26;;;;;;;30.00;21.65;;;17.30;57.80;;;;;;5097228;28;20052;-70
2022/03/24 08:52:52;;;;;;;29.45;22.13;;;17.30;58.10;;;;;;5096801;28;20047;-71
2022/03/24 08:55:19;;;;;;;26.45;19.52;;;17.30;58.30;;;;;;5075939;28;20052;-72
2022/03/24 08:57:46;;;;;;;30.95;20.13;;;17.30;59.00;;;;;;5096669;28;20036;-73
2022/03/24 09:00:16;;;;;;;27.92;21.05;;;17.30;59.90;;;;;;5095323;28;20118;-69
2022/03/24 09:02:49;;;;;;;27.23;19.10;;;17.30;60.30;;;;;;5096365;28;20086;-69
2022/03/24 09:05:16;;;;;;;28.20;19.35;;;17.30;59.60;;;;;;5096204;28;20106;-70
2022/03/24 09:07:43;;;;;;;33.17;19.52;;;17.30;60.10;;;;;;5096238;28;20051;-71
2022/03/24 09:10:10;;;;;;;28.75;18.13;;;17.30;60.40;;;;;;5095805;28;20656;-70
2022/03/24 09:12:38;;;;;;;30.73;17.73;;;17.30;61.00;;;;;;5078260;28;20080;-81
2022/03/24 09:15:06;;;;;;;24.23;17.02;;;17.30;61.90;;;;;;5078565;28;20117;-78
2022/03/24 09:17:33;;;;;;;29.33;17.63;;;17.30;62.60;;;;;;5096491;28;20043;-75
2022/03/24 09:19:59;;;;;;;25.73;14.43;;;17.30;63.50;;;;;;5089890;28;20100;-76
2022/03/24 09:22:24;;;;;;;25.60;15.02;;;17.30;62.00;;;;;;5076266;28;20056;-74
2022/03/24 09:24:50;;;;;;;40.03;17.20;;;17.30;61.60;;;;;;5078079;28;20048;-75
2022/03/24 09:27:16;;;;;;;25.50;13.98;;;17.30;62.30;;;;;;5096038;28;20036;-75
2022/03/24 09:29:42;;;;;;;21.33;13.95;;;17.30;62.60;;;;;;5078499;28;20043;-75
2022/03/24 09:32:12;;;;;;;22.55;13.68;;;17.30;62.60;;;;;;5096037;28;20051;-75
2022/03/24 09:34:39;;;;;;;24.40;13.60;;;17.30;62.80;;;;;;5096239;28;20532;-75
2022/03/24 09:37:06;;;;;;;25.38;13.15;;;17.30;63.00;;;;;;5095936;28;20086;-76
2022/03/24 09:39:32;;;;;;;17.67;12.13;;;17.20;63.20;;;;;;5078689;28;20070;-76
2022/03/24 09:41:58;;;;;;;18.65;12.27;;;17.20;63.20;;;;;;5096201;28;20048;-75
2022/03/24 09:44:24;;;;;;;22.42;13.23;;;17.20;63.40;;;;;;5077873;28;20094;-76
2022/03/24 09:46:50;;;;;;;21.70;11.40;;;17.20;63.40;;;;;;5095812;28;20135;-76
2022/03/24 09:49:16;;;;;;;18.83;11.88;;;17.20;63.60;;;;;;5092841;28;20340;-74
2022/03/24 09:51:43;;;;;;;17.67;11.60;;;17.20;63.50;;;;;;5089598;28;20051;-75
2022/03/24 09:54:13;;;;;;;16.52;11.55;;;17.20;63.60;;;;;;5078037;28;20048;-78
2022/03/24 09:56:39;;;;;;;17.80;10.50;;;17.20;63.70;;;;;;5095534;28;20071;-77
2022/03/24 09:59:09;;;;;;;17.13;10.88;;;17.20;63.70;;;;;;5076434;28;20055;-76
2022/03/24 10:01:40;;;;;;;15.68;10.60;;;17.20;63.60;;;;;;5094927;28;20467;-77
2022/03/24 10:04:14;;;;;;;14.55;10.73;;;17.20;63.70;;;;;;5095614;28;20063;-75
2022/03/24 10:07:01;;;;;;;23.77;10.48;;;17.20;63.80;;;;;;5095377;28;20040;-77
2022/03/24 10:09:45;;;;;;;13.18;9.68;;;17.10;63.60;;;;;;5095460;28;20048;-77
2022/03/24 10:12:20;;;;;;;14.50;9.55;;;17.20;63.40;;;;;;5077707;28;20052;-74
2022/03/24 10:15:06;;;;;;;21.77;11.90;;;17.20;62.80;;;;;;5095507;28;20091;-76
2022/03/24 10:17:34;;;;;;;19.90;12.65;;;17.10;62.20;;;;;;5095263;28;20052;-77
2022/03/24 10:20:17;;;;;;;20.02;13.00;;;17.10;62.90;;;;;;5095373;28;20048;-79
2022/03/24 10:22:56;;;;;;;23.90;15.85;;;17.10;63.20;;;;;;5089859;28;20044;-71
2022/03/24 10:25:26;;;;;;;23.48;18.02;;;17.10;62.20;;;;;;5095366;28;20112;-70
2022/03/24 10:28:03;;;;;;;25.02;14.80;;;17.10;61.60;;;;;;5078021;28;20055;-73
2022/03/24 10:30:43;;;;;;;22.70;16.65;;;17.10;62.20;;;;;;5094913;28;20043;-75
2022/03/24 10:33:09;;;;;;;32.13;16.98;;;17.10;62.50;;;;;;5077684;28;20055;-76
2022/03/24 10:35:35;;;;;;;28.90;19.20;;;17.10;61.10;;;;;;5095089;28;20127;-75
2022/03/24 10:38:01;;;;;;;28.67;21.67;;;17.10;61.20;;;;;;5092817;28;20044;-74
2022/03/24 10:40:27;;;;;;;25.08;18.05;;;17.10;61.10;;;;;;5095408;28;20044;-73
2022/03/24 10:42:57;;;;;;;25.67;17.80;;;17.10;61.30;;;;;;5094661;28;20142;-72
2022/03/24 10:45:22;;;;;;;21.65;16.52;;;17.20;61.40;;;;;;5095006;28;20079;-72
2022/03/24 10:47:49;;;;;;;24.30;16.92;;;17.20;61.60;;;;;;5095006;28;20079;-72
2022/03/24 10:50:20;;;;;;;22.42;16.05;;;17.20;61.80;;;;;;5095127;28;20048;-73
2022/03/24 10:52:47;;;;;;;24.90;16.33;;;17.10;62.00;;;;;;5095252;28;20056;-73
2022/03/24 10:55:35;;;;;;;22.80;15.60;;;17.10;62.10;;;;;;5077781;28;20173;-75
2022/03/24 10:58:04;;;;;;;24.77;16.00;;;17.10;62.20;;;;;;5095568;28;20044;-72
2022/03/24 11:00:31;;;;;;;24.85;16.02;;;17.20;62.50;;;;;;5095402;28;20080;-73
2022/03/24 11:02:58;;;;;;;21.23;13.90;;;17.10;63.20;;;;;;5094542;28;20059;-73
2022/03/24 11:05:24;;;;;;;21.38;16.08;;;17.20;62.80;;;;;;5094935;28;20044;-73
2022/03/24 11:07:52;;;;;;;20.27;14.77;;;17.10;62.80;;;;;;5095098;28;20052;-74
2022/03/24 11:10:19;;;;;;;26.13;20.10;;;17.10;62.70;;;;;;5094718;28;20063;-71
2022/03/24 11:12:49;;;;;;;35.95;26.88;;;17.10;61.10;;;;;;5094626;28;20048;-74
2022/03/24 11:15:16;;;;;;;33.05;24.27;;;16.90;57.80;;;;;;5094883;28;20455;-77
2022/03/24 11:17:42;;;;;;;30.58;24.15;;;16.60;58.20;;;;;;5094840;28;20047;-72
2022/03/24 11:20:21;;;;;;;32.53;24.48;;;16.60;59.20;;;;;;5094951;28;20105;-72
2022/03/24 11:22:52;;;;;;;32.55;24.83;;;16.50;59.40;;;;;;5095033;28;20055;-73
2022/03/24 11:25:19;;;;;;;34.95;24.98;;;16.50;60.00;;;;;;5094581;28;20044;-72
2022/03/24 11:27:46;;;;;;;34.05;23.55;;;16.40;59.60;;;;;;5094319;28;20040;-70
2022/03/24 11:30:13;;;;;;;68.75;30.88;;;16.50;61.00;;;;;;5097689;28;20127;-73
2022/03/24 11:32:42;;;;;;;45.67;26.90;;;16.50;60.40;;;;;;5097859;28;20059;-74
2022/03/24 11:35:10;;;;;;;52.45;28.25;;;16.60;59.90;;;;;;5098614;28;20477;-75
2022/03/24 11:37:36;;;;;;;43.47;27.20;;;16.60;59.20;;;;;;5079979;28;20120;-72
2022/03/24 11:40:18;;;;;;;35.42;26.30;;;16.70;59.60;;;;;;5098198;28;20059;-72
2022/03/24 11:43:02;;;;;;;37.60;26.35;;;16.60;59.40;;;;;;5097951;28;20044;-71
2022/03/24 11:45:58;;;;;;;39.08;26.90;;;16.60;59.60;;;;;;5099085;28;20048;-73
2022/03/24 11:48:39;;;;;;;38.45;25.38;;;16.50;59.70;;;;;;5097837;28;20372;-71
2022/03/24 11:51:25;;;;;;;33.30;23.70;;;16.50;60.20;;;;;;5098315;28;20051;-72
2022/03/24 11:54:01;;;;;;;38.25;24.73;;;16.50;60.30;;;;;;5097197;28;20067;-76
2022/03/24 11:56:27;;;;;;;32.70;24.05;;;16.50;60.50;;;;;;5097737;28;20432;-72
2022/03/24 11:58:53;;;;;;;33.92;24.13;;;16.40;60.40;;;;;;5097849;28;20119;-71
2022/03/24 12:01:22;;;;;;;29.13;22.77;;;16.40;60.50;;;;;;5097607;28;20152;-71
2022/03/24 12:04:03;;;;;;;29.95;22.90;;;16.40;60.50;;;;;;5097637;28;20447;-73
2022/03/24 12:06:52;;;;;;;30.27;21.80;;;16.40;60.70;;;;;;5079820;28;20134;-72
2022/03/24 12:09:25;;;;;;;28.38;21.80;;;16.40;60.80;;;;;;5097782;28;20080;-73
2022/03/24 12:12:03;;;;;;;28.42;21.95;;;16.40;61.00;;;;;;5097601;28;20133;-72
2022/03/24 12:14:32;;;;;;;27.27;20.80;;;16.40;61.00;;;;;;5097815;28;20044;-73
2022/03/24 12:17:23;;;;;;;28.00;21.70;;;16.40;61.20;;;;;;5097769;28;20048;-73
2022/03/24 12:19:54;;;;;;;27.08;19.92;;;16.40;61.20;;;;;;5079850;28;20094;-73
2022/03/24 12:22:25;;;;;;;26.05;20.63;;;16.40;61.30;;;;;;5097527;28;20131;-72
2022/03/24 12:24:52;;;;;;;25.13;19.17;;;16.40;61.30;;;;;;5097866;28;20179;-73
2022/03/24 12:27:18;;;;;;;25.23;19.38;;;16.40;61.40;;;;;;5097621;28;20444;-72
2022/03/24 12:30:10;;;;;;;21.75;17.95;;;16.40;61.40;;;;;;5097493;28;20044;-72
2022/03/24 12:32:36;;;;;;;24.02;18.35;;;16.40;61.30;;;;;;5097369;28;20136;-72
2022/03/24 12:35:03;;;;;;;24.38;19.02;;;16.40;61.50;;;;;;5097646;28;20060;-73
2022/03/24 12:37:32;;;;;;;23.15;19.25;;;16.40;61.60;;;;;;5094161;28;20056;-71